Time;durP1;ratioP1;P1;durP2;ratioP2;P2;SDS_P1;SDS_P2;PMS_P1;PMS_P2;Temp;Humidity;BMP_temperature;BMP_pressure;BME280_temperature;BME280_humidity;BME280_pressure;Samples;Min_cycle;Max_cycle;Signal;HPM_P1;HPM_P2
2022/08/26 00:00:34;;;;;;;16.88;5.75;;;;;;;19.87;100.00;98311.09;5173504;27;20105;-53
2022/08/26 00:03:01;;;;;;;14.32;5.47;;;;;;;19.82;100.00;98308.88;5173522;27;20133;-54
2022/08/26 00:05:27;;;;;;;12.82;5.63;;;;;;;19.87;100.00;98310.34;5173534;27;20137;-53
2022/08/26 00:07:54;;;;;;;15.02;8.18;;;;;;;19.68;100.00;98326.81;5173649;27;20185;-53
2022/08/26 00:10:21;;;;;;;10.70;7.22;;;;;;;19.60;100.00;98346.94;5173672;27;20086;-53
2022/08/26 00:12:47;;;;;;;10.20;7.85;;;;;;;19.40;100.00;98375.72;5173853;27;20097;-52
2022/08/26 00:15:17;;;;;;;13.95;5.38;;;;;;;19.20;100.00;98425.16;5173311;27;20194;-53
2022/08/26 00:17:44;;;;;;;14.55;7.30;;;;;;;19.14;100.00;98524.94;5173637;27;20128;-55
2022/08/26 00:20:13;;;;;;;15.35;6.35;;;;;;;19.11;100.00;98689.72;5173286;27;20089;-55
2022/08/26 00:22:39;;;;;;;14.43;5.72;;;;;;;19.16;100.00;98894.84;5173341;27;20050;-54
2022/08/26 00:25:08;;;;;;;13.90;5.30;;;;;;;18.94;100.00;99000.03;5173250;27;20085;-53
2022/08/26 00:27:35;;;;;;;13.32;6.25;;;;;;;18.97;100.00;99146.44;5173161;27;20050;-51
2022/08/26 00:30:03;;;;;;;8.52;5.25;;;;;;;18.81;100.00;99265.72;5173508;27;20052;-53
2022/08/26 00:32:29;;;;;;;14.50;5.25;;;;;;;18.83;100.00;99362.50;5173334;27;20125;-54
2022/08/26 00:34:55;;;;;;;12.82;6.50;;;;;;;18.91;100.00;99414.00;5173285;27;20054;-52
2022/08/26 00:37:22;;;;;;;11.27;6.95;;;;;;;18.82;100.00;99436.72;5173034;27;20050;-53
2022/08/26 00:39:48;;;;;;;7.05;5.28;;;;;;;18.75;100.00;99503.44;5173055;27;20049;-55
2022/08/26 00:42:15;;;;;;;12.52;4.90;;;;;;;18.89;100.00;99513.63;5172107;27;20591;-52
2022/08/26 00:44:41;;;;;;;12.50;6.95;;;;;;;18.76;100.00;99536.38;5172976;27;20131;-55
2022/08/26 00:47:17;;;;;;;14.88;5.85;;;;;;;18.81;100.00;99552.59;5172890;27;20078;-55
2022/08/26 00:49:46;;;;;;;10.13;4.60;;;;;;;18.88;100.00;99557.28;5172896;27;20525;-51
2022/08/26 00:52:17;;;;;;;12.52;4.80;;;;;;;19.01;100.00;99571.44;5173216;27;20950;-52
2022/08/26 00:54:49;;;;;;;9.98;4.95;;;;;;;18.68;100.00;99609.81;5172648;27;20057;-52
2022/08/26 00:57:18;;;;;;;10.43;5.30;;;;;;;18.80;100.00;99651.00;5172648;27;20085;-55
2022/08/26 00:59:46;;;;;;;15.15;5.20;;;;;;;18.79;100.00;99659.72;5172801;27;20093;-55
2022/08/26 01:02:12;;;;;;;11.30;6.55;;;;;;;18.95;100.00;99648.09;5172949;27;20054;-54
2022/08/26 01:04:40;;;;;;;12.90;6.90;;;;;;;18.78;100.00;99666.50;5172615;27;20088;-55
2022/08/26 01:07:06;;;;;;;11.73;7.30;;;;;;;18.94;100.00;99677.09;5172864;27;20081;-52
2022/08/26 01:09:33;;;;;;;9.55;4.95;;;;;;;18.77;100.00;99709.38;5172490;27;20042;-56
2022/08/26 01:12:01;;;;;;;10.23;5.28;;;;;;;18.67;100.00;99740.75;5172768;27;20133;-55
2022/08/26 01:14:31;;;;;;;6.57;4.82;;;;;;;18.69;100.00;99752.22;5172490;27;20065;-55
2022/08/26 01:16:59;;;;;;;13.23;4.97;;;;;;;18.41;100.00;99767.03;5172424;27;20092;-54
2022/08/26 01:19:30;;;;;;;12.52;5.03;;;;;;;18.49;100.00;99774.94;5172296;27;20505;-54
2022/08/26 01:22:01;;;;;;;10.38;7.20;;;;;;;18.55;100.00;99784.41;5172565;27;20890;-53
2022/08/26 01:24:30;;;;;;;8.45;6.43;;;;;;;18.75;100.00;99790.31;5172266;27;20094;-55
2022/08/26 01:27:00;;;;;;;11.32;4.82;;;;;;;18.73;100.00;99781.59;5172319;27;20077;-52
2022/08/26 01:29:28;;;;;;;11.02;5.38;;;;;;;18.69;100.00;99786.34;5172655;27;20056;-53
2022/08/26 01:31:56;;;;;;;15.90;5.55;;;;;;;18.61;100.00;99784.81;5172280;27;20096;-52
2022/08/26 01:34:25;;;;;;;8.57;5.18;;;;;;;18.62;100.00;99803.03;5172410;27;20050;-54
2022/08/26 01:36:57;;;;;;;10.48;5.68;;;;;;;18.40;100.00;99796.00;5172138;27;20527;-52
2022/08/26 01:39:24;;;;;;;10.02;5.28;;;;;;;18.60;100.00;99802.66;5172029;27;20050;-53
2022/08/26 01:41:55;;;;;;;13.15;5.85;;;;;;;18.65;100.00;99812.56;5172192;27;20097;-53
2022/08/26 01:44:24;;;;;;;11.43;7.50;;;;;;;18.40;100.00;99815.44;5172234;27;20056;-53
2022/08/26 01:46:52;;;;;;;8.35;5.05;;;;;;;18.31;100.00;99818.63;5172038;27;20053;-55
2022/08/26 01:49:20;;;;;;;11.23;5.82;;;;;;;18.23;100.00;99823.41;5172021;27;20075;-53
2022/08/26 01:51:47;;;;;;;9.32;5.55;;;;;;;18.24;100.00;99818.66;5172130;27;20042;-55
2022/08/26 01:54:14;;;;;;;12.10;7.72;;;;;;;17.99;100.00;99816.72;5173408;27;20109;-53
2022/08/26 01:56:41;;;;;;;9.82;5.57;;;;;;;18.16;100.00;99825.41;5175557;27;20092;-54
2022/08/26 01:59:12;;;;;;;12.57;7.38;;;;;;;18.11;100.00;99827.41;5175510;27;20501;-53
2022/08/26 02:01:38;;;;;;;11.45;8.02;;;;;;;18.32;100.00;99823.78;5176010;27;20046;-52
2022/08/26 02:04:20;;;;;;;14.48;5.88;;;;;;;18.21;100.00;99828.56;5175474;27;20138;-52
2022/08/26 02:06:47;;;;;;;8.90;6.13;;;;;;;18.31;100.00;99832.50;5175684;27;20078;-53
2022/08/26 02:09:14;;;;;;;9.98;5.38;;;;;;;18.15;100.00;99824.63;5175742;27;20413;-52
2022/08/26 02:11:40;;;;;;;8.40;5.78;;;;;;;18.21;100.00;99823.03;5175519;27;20050;-55
2022/08/26 02:14:13;;;;;;;16.05;7.75;;;;;;;18.30;100.00;99840.06;5175580;27;20109;-54
2022/08/26 02:16:45;;;;;;;9.75;5.65;;;;;;;18.26;100.00;99850.38;5175434;27;20133;-55
2022/08/26 02:19:15;;;;;;;10.65;5.65;;;;;;;18.26;100.00;99849.56;5175181;27;20143;-52
2022/08/26 02:21:42;;;;;;;10.68;5.60;;;;;;;18.02;100.00;99837.31;5175334;27;20521;-55
2022/08/26 02:24:11;;;;;;;8.98;5.70;;;;;;;18.16;100.00;99808.75;5175003;27;20500;-54
2022/08/26 02:26:38;;;;;;;13.88;7.70;;;;;;;18.15;100.00;99821.84;5175123;27;20493;-53
2022/08/26 02:29:10;;;;;;;8.75;5.53;;;;;;;18.28;100.00;99809.13;5175065;27;20046;-51
2022/08/26 02:31:36;;;;;;;10.40;5.80;;;;;;;18.07;100.00;99815.53;5175720;27;20050;-52
2022/08/26 02:34:10;;;;;;;8.65;5.50;;;;;;;18.36;100.00;99815.47;5175288;27;20376;-53
2022/08/26 02:36:37;;;;;;;9.65;5.28;;;;;;;18.16;100.00;99812.34;5175137;27;20042;-53
2022/08/26 02:39:04;;;;;;;9.05;6.07;;;;;;;18.37;100.00;99824.56;5175197;27;20461;-53
2022/08/26 02:41:31;;;;;;;11.18;7.78;;;;;;;18.05;100.00;99817.09;5175294;27;20106;-54
2022/08/26 02:43:57;;;;;;;11.35;5.70;;;;;;;17.85;100.00;99787.03;5175123;27;20131;-51
2022/08/26 02:46:24;;;;;;;12.27;6.15;;;;;;;17.95;100.00;99781.84;5174904;27;20054;-53
2022/08/26 02:48:50;;;;;;;11.00;7.85;;;;;;;17.96;100.00;99789.78;5174827;27;20050;-52
2022/08/26 02:51:17;;;;;;;9.40;5.88;;;;;;;18.01;100.00;99761.63;5174632;27;20046;-54
2022/08/26 02:53:43;;;;;;;10.88;6.43;;;;;;;17.94;100.00;99767.22;5175033;27;20145;-52
2022/08/26 02:56:10;;;;;;;13.50;6.18;;;;;;;17.97;100.00;99763.63;5174844;27;20050;-55
2022/08/26 02:58:36;;;;;;;15.20;6.20;;;;;;;17.83;100.00;99747.03;5174692;27;20078;-53
2022/08/26 03:01:02;;;;;;;11.07;8.20;;;;;;;17.91;100.00;99742.25;5174785;27;20465;-53
2022/08/26 03:03:30;;;;;;;10.20;5.85;;;;;;;18.14;100.00;99756.44;5174898;27;20043;-54
2022/08/26 03:05:57;;;;;;;7.68;5.20;;;;;;;17.88;100.00;99769.59;5173741;27;20054;-55
2022/08/26 03:08:23;;;;;;;10.77;8.20;;;;;;;18.09;100.00;99774.31;5174311;27;20046;-54
2022/08/26 03:10:49;;;;;;;12.18;5.60;;;;;;;18.22;100.00;99780.19;5174645;27;20050;-53
2022/08/26 03:13:16;;;;;;;10.55;6.50;;;;;;;18.15;100.00;99796.88;5174862;27;20050;-55
2022/08/26 03:15:43;;;;;;;9.40;5.45;;;;;;;18.12;100.00;99781.00;5174805;27;20344;-55
2022/08/26 03:18:10;;;;;;;12.10;8.10;;;;;;;17.81;100.00;99777.94;5174693;27;20421;-52
2022/08/26 03:20:37;;;;;;;10.65;5.50;;;;;;;17.80;100.00;99737.53;5174434;27;20046;-54
2022/08/26 03:23:03;;;;;;;11.68;6.07;;;;;;;17.84;100.00;99734.75;5174578;27;20057;-53
2022/08/26 03:25:30;;;;;;;12.02;5.93;;;;;;;17.68;100.00;99712.16;5174810;27;20165;-53
2022/08/26 03:27:56;;;;;;;10.95;6.05;;;;;;;17.84;100.00;99698.69;5174415;27;20125;-55
2022/08/26 03:30:40;;;;;;;10.75;5.80;;;;;;;17.80;100.00;99715.34;5174389;27;20134;-55
2022/08/26 03:33:09;;;;;;;;;;;;;;;18.28;100.00;99745.28;5174737;27;20052;-52
2022/08/26 03:35:37;;;;;;;10.23;7.88;;;;;;;18.03;100.00;99748.16;5174240;27;19922;-54
2022/08/26 03:38:05;;;;;;;10.43;5.95;;;;;;;18.11;100.00;99751.69;5174115;27;20081;-56
2022/08/26 03:40:33;;;;;;;13.55;5.28;;;;;;;17.95;100.00;99754.91;5174236;27;20047;-53
2022/08/26 03:43:00;;;;;;;8.25;5.85;;;;;;;18.32;100.00;99776.59;5174138;27;20046;-54
2022/08/26 03:45:27;;;;;;;9.27;7.57;;;;;;;18.68;100.00;99781.97;5173834;27;20146;-52
2022/08/26 03:47:53;;;;;;;12.23;7.95;;;;;;;18.73;100.00;99816.91;5174085;27;20134;-55
2022/08/26 03:50:21;;;;;;;10.88;5.78;;;;;;;19.21;100.00;99832.91;5173847;27;20190;-52
2022/08/26 03:52:49;;;;;;;11.98;7.68;;;;;;;19.10;100.00;99844.09;5174367;27;20156;-55
2022/08/26 03:55:17;;;;;;;11.70;7.50;;;;;;;19.14;100.00;99855.97;5174282;27;20903;-54
2022/08/26 03:57:43;;;;;;;11.15;7.57;;;;;;;19.23;100.00;99848.00;5174148;27;20046;-55
2022/08/26 04:00:13;;;;;;;7.93;6.93;;;;;;;19.45;100.00;99842.28;5173822;27;20085;-55
2022/08/26 04:02:40;;;;;;;14.82;7.97;;;;;;;19.64;100.00;99835.41;5173914;27;20054;-57
2022/08/26 04:05:07;;;;;;;12.77;7.88;;;;;;;19.15;100.00;99843.66;5173628;27;20145;-53
2022/08/26 04:07:33;;;;;;;11.25;5.60;;;;;;;19.26;100.00;99847.19;5173622;27;20580;-52
2022/08/26 04:10:00;;;;;;;11.70;5.97;;;;;;;19.19;100.00;99847.22;5173491;27;20051;-52
2022/08/26 04:12:27;;;;;;;12.93;6.32;;;;;;;18.72;100.00;99851.44;5173421;27;20094;-54
2022/08/26 04:14:53;;;;;;;10.20;5.47;;;;;;;18.63;100.00;99831.63;5173387;27;20086;-56
2022/08/26 04:17:19;;;;;;;9.32;5.70;;;;;;;18.61;100.00;99823.69;5173578;27;20145;-54
2022/08/26 04:19:46;;;;;;;17.13;6.38;;;;;;;18.38;100.00;99795.63;5173657;27;20494;-54
2022/08/26 04:22:12;;;;;;;17.35;6.53;;;;;;;18.13;100.00;99790.13;5173566;27;20046;-55
2022/08/26 04:24:38;;;;;;;15.13;8.50;;;;;;;18.34;100.00;99754.78;5173527;27;20058;-52
2022/08/26 04:27:05;;;;;;;8.52;5.57;;;;;;;18.34;100.00;99773.41;5173340;27;20057;-52
2022/08/26 04:29:32;;;;;;;14.27;8.70;;;;;;;18.36;100.00;99771.03;5173468;27;20050;-55
2022/08/26 04:31:58;;;;;;;13.15;6.43;;;;;;;18.12;100.00;99778.25;5173210;27;20056;-54
2022/08/26 04:34:27;;;;;;;14.18;8.15;;;;;;;18.32;100.00;99761.91;5173128;27;20145;-53
2022/08/26 04:36:54;;;;;;;11.80;6.30;;;;;;;18.26;100.00;99778.22;5173232;27;20413;-51
2022/08/26 04:39:20;;;;;;;19.38;6.28;;;;;;;18.75;100.00;99775.63;5173071;27;20398;-52
2022/08/26 04:41:47;;;;;;;11.18;6.53;;;;;;;18.67;100.00;99807.41;5172920;27;20078;-52
2022/08/26 04:44:15;;;;;;;10.80;6.72;;;;;;;18.74;100.00;99802.63;5173343;27;20138;-55
2022/08/26 04:46:41;;;;;;;8.50;5.50;;;;;;;18.78;100.00;99814.50;5173022;27;20085;-53
2022/08/26 04:49:08;;;;;;;15.32;5.93;;;;;;;19.48;100.00;99838.66;5173017;27;20046;-56
2022/08/26 04:51:35;;;;;;;9.35;5.45;;;;;;;19.69;100.00;99852.47;5173092;27;20485;-54
2022/08/26 04:54:02;;;;;;;9.55;5.80;;;;;;;20.18;100.00;99850.38;5172756;27;20110;-54
2022/08/26 04:56:32;;;;;;;10.48;5.15;;;;;;;20.13;100.00;99816.66;5172947;27;20497;-53
2022/08/26 04:58:59;;;;;;;9.90;5.63;;;;;;;21.32;100.00;99685.66;5172742;27;20539;-55
2022/08/26 05:01:26;;;;;;;6.32;5.15;;;;;;;21.25;100.00;99569.44;5173036;27;20084;-55
2022/08/26 05:03:53;;;;;;;11.68;5.38;;;;;;;21.46;100.00;99445.56;5172742;27;20081;-54
2022/08/26 05:06:19;;;;;;;8.77;5.13;;;;;;;22.32;100.00;99248.03;5172800;27;20116;-56
2022/08/26 05:08:46;;;;;;;15.85;7.60;;;;;;;22.27;100.00;99296.09;5172808;27;20101;-54
2022/08/26 05:11:12;;;;;;;10.20;6.45;;;;;;;23.07;100.00;99027.75;5172910;27;20826;-52
2022/08/26 05:13:39;;;;;;;15.70;6.88;;;;;;;23.26;100.00;98866.47;5172758;27;20050;-53
2022/08/26 05:16:08;;;;;;;14.18;6.90;;;;;;;23.36;100.00;98736.59;5172887;27;20092;-52
2022/08/26 05:18:36;;;;;;;7.97;5.57;;;;;;;23.81;100.00;98651.19;5172613;27;20064;-53
2022/08/26 05:21:03;;;;;;;13.48;7.35;;;;;;;23.75;100.00;98573.91;5172431;27;20048;-57
2022/08/26 05:23:30;;;;;;;13.95;7.15;;;;;;;23.58;100.00;98691.72;5172340;27;20051;-54
2022/08/26 05:25:58;;;;;;;10.38;7.28;;;;;;;23.04;100.00;98647.66;5172295;27;20046;-54
2022/08/26 05:28:25;;;;;;;14.85;6.85;;;;;;;23.97;100.00;98585.69;5171799;27;20101;-54
2022/08/26 05:30:52;;;;;;;10.38;6.53;;;;;;;23.97;100.00;98482.09;5172154;27;20088;-56
2022/08/26 05:33:19;;;;;;;13.70;6.85;;;;;;;24.64;100.00;98440.84;5172299;27;20091;-54
2022/08/26 05:35:46;;;;;;;9.77;6.00;;;;;;;24.81;100.00;98380.28;5172065;27;20097;-53
2022/08/26 05:38:16;;;;;;;14.02;6.78;;;;;;;25.12;100.00;98381.88;5172259;27;20054;-56
2022/08/26 05:40:45;;;;;;;12.38;7.00;;;;;;;25.01;100.00;98385.22;5172170;27;20581;-55
2022/08/26 05:43:12;;;;;;;8.88;6.75;;;;;;;26.03;100.00;98371.63;5172110;27;20429;-57
2022/08/26 05:45:41;;;;;;;10.45;6.65;;;;;;;25.54;100.00;98372.38;5172077;27;20511;-58
2022/08/26 05:48:08;;;;;;;11.60;6.00;;;;;;;26.23;100.00;98406.63;5171989;27;20086;-56
2022/08/26 05:50:38;;;;;;;8.80;6.88;;;;;;;26.35;100.00;98404.72;5172021;27;20046;-56
2022/08/26 05:53:07;;;;;;;12.90;7.45;;;;;;;26.59;100.00;98402.50;5171940;27;20050;-56
2022/08/26 05:55:34;;;;;;;14.52;7.18;;;;;;;26.58;100.00;98398.13;5172021;27;20088;-57
2022/08/26 05:58:00;;;;;;;12.52;6.60;;;;;;;26.39;100.00;98450.22;5171907;27;20190;-54
2022/08/26 06:00:27;;;;;;;10.45;6.65;;;;;;;26.62;100.00;98418.38;5171578;27;20133;-56
2022/08/26 06:02:53;;;;;;;13.63;7.20;;;;;;;27.05;100.00;98440.34;5171782;27;20077;-60
2022/08/26 06:05:19;;;;;;;15.27;7.25;;;;;;;26.87;100.00;98472.38;5171642;27;20093;-58
2022/08/26 06:10:32;;;;;;;9.48;6.50;;;;;;;28.10;100.00;98546.06;5171760;27;20094;-55
2022/08/26 06:12:58;;;;;;;14.93;7.38;;;;;;;27.47;100.00;98512.19;5171851;27;20069;-55
2022/08/26 06:15:25;;;;;;;10.88;7.20;;;;;;;27.39;100.00;98500.56;5171413;27;20531;-55
2022/08/26 06:17:51;;;;;;;11.15;7.20;;;;;;;28.11;100.00;98559.66;5171776;27;20053;-50
2022/08/26 06:20:17;;;;;;;12.57;6.70;;;;;;;27.93;100.00;98554.38;5171462;27;20046;-52
2022/08/26 06:25:37;;;;;;;20.42;7.30;;;;;;;28.74;100.00;98586.28;5171226;27;20049;-58
2022/08/26 06:28:04;;;;;;;11.30;7.63;;;;;;;28.97;100.00;98621.81;5171350;27;20531;-56
2022/08/26 06:30:31;;;;;;;13.52;7.25;;;;;;;29.24;100.00;98620.44;5171346;27;20133;-57
2022/08/26 06:32:57;;;;;;;11.75;6.22;;;;;;;29.11;100.00;98678.63;5171325;27;20050;-56
2022/08/26 06:35:23;;;;;;;11.20;6.70;;;;;;;30.00;100.00;98655.66;5170973;27;20061;-56
2022/08/26 06:37:49;;;;;;;12.30;6.50;;;;;;;29.25;100.00;98616.31;5171219;27;20517;-57
2022/08/26 06:40:16;;;;;;;12.90;6.95;;;;;;;29.52;100.00;98670.59;5171522;27;20075;-57
2022/08/26 06:42:42;;;;;;;14.10;7.63;;;;;;;29.69;100.00;98645.28;5174480;27;20046;-58
2022/08/26 06:45:10;;;;;;;16.58;7.40;;;;;;;30.52;100.00;98691.97;5175044;27;20513;-58
2022/08/26 06:47:36;;;;;;;16.35;7.32;;;;;;;29.97;100.00;98684.94;5174542;27;20048;-58
2022/08/26 06:50:02;;;;;;;18.02;7.97;;;;;;;30.46;100.00;98730.81;5174852;27;20053;-56
2022/08/26 06:52:29;;;;;;;17.85;7.18;;;;;;;31.01;100.00;98763.25;5174601;27;20501;-61
2022/08/26 06:54:55;;;;;;;12.35;7.53;;;;;;;31.38;100.00;98784.88;5174550;27;20132;-56
2022/08/26 06:57:21;;;;;;;18.05;7.60;;;;;;;30.92;100.00;98747.31;5174445;27;20053;-58
2022/08/26 06:59:47;;;;;;;11.02;7.68;;;;;;;30.99;100.00;98742.41;5174600;27;20145;-58
2022/08/26 07:02:14;;;;;;;12.55;8.13;;;;;;;31.47;100.00;98815.75;5174593;27;20046;-58
2022/08/26 07:04:40;;;;;;;13.63;7.53;;;;;;;31.58;100.00;98783.81;5174411;27;20081;-58
2022/08/26 07:07:07;;;;;;;14.35;7.50;;;;;;;30.69;100.00;98786.13;5174405;27;20168;-58
2022/08/26 07:09:34;;;;;;;15.23;7.45;;;;;;;30.28;100.00;98773.69;5174126;27;20051;-56
2022/08/26 07:12:01;;;;;;;14.13;7.40;;;;;;;31.03;100.00;98752.19;5174611;27;20046;-57
2022/08/26 07:14:27;;;;;;;14.07;8.13;;;;;;;31.64;100.00;98805.16;5174327;27;20050;-57
2022/08/26 07:16:54;;;;;;;16.08;7.85;;;;;;;31.71;100.00;98822.94;5174127;27;20050;-57
2022/08/26 07:19:22;;;;;;;11.45;7.40;;;;;;;31.74;100.00;98791.50;5174064;27;20075;-61
2022/08/26 07:21:48;;;;;;;11.95;6.72;;;;;;;31.18;100.00;98848.19;5174056;27;20425;-59
2022/08/26 07:24:14;;;;;;;14.63;7.53;;;;;;;31.43;100.00;98783.34;5173844;27;20148;-60
2022/08/26 07:26:40;;;;;;;13.10;7.25;;;;;;;31.72;100.00;98791.22;5174264;27;20068;-56
2022/08/26 07:29:07;;;;;;;12.85;8.05;;;;;;;31.36;100.00;98782.56;5174298;27;20057;-61
2022/08/26 07:31:34;;;;;;;12.27;6.70;;;;;;;31.26;100.00;98792.59;5174140;27;20564;-58
2022/08/26 07:34:00;;;;;;;18.42;8.27;;;;;;;32.01;100.00;98821.06;5174529;27;20110;-59
2022/08/26 07:36:28;;;;;;;15.60;8.13;;;;;;;31.97;100.00;98848.16;5174229;27;20146;-61
2022/08/26 07:38:54;;;;;;;25.42;9.20;;;;;;;32.69;100.00;98830.06;5174478;27;20142;-60
2022/08/26 07:41:23;;;;;;;16.65;7.60;;;;;;;32.84;100.00;98862.97;5174007;27;20088;-57
2022/08/26 07:43:49;;;;;;;15.70;8.48;;;;;;;33.12;100.00;98869.25;5174203;27;20053;-57
2022/08/26 07:46:18;;;;;;;10.32;7.78;;;;;;;33.62;100.00;98868.09;5173971;27;20576;-56
2022/08/26 07:48:45;;;;;;;16.55;8.18;;;;;;;33.17;100.00;98874.13;5173826;27;20054;-63
2022/08/26 07:51:13;;;;;;;18.35;7.50;;;;;;;33.58;100.00;98875.38;5173495;27;20078;-58
2022/08/26 07:53:41;;;;;;;17.23;9.02;;;;;;;34.09;100.00;98893.50;5173684;27;20046;-58
2022/08/26 07:56:07;;;;;;;22.17;9.32;;;;;;;34.10;100.00;98900.72;5173550;27;20141;-59
2022/08/26 07:58:33;;;;;;;19.35;8.77;;;;;;;33.39;100.00;98897.97;5173567;27;20102;-61
2022/08/26 08:00:59;;;;;;;16.77;8.32;;;;;;;33.62;100.00;98910.75;5173938;27;20129;-59
2022/08/26 08:03:26;;;;;;;15.68;8.63;;;;;;;33.04;100.00;98893.84;5173615;27;20641;-62
2022/08/26 08:05:52;;;;;;;19.23;8.38;;;;;;;33.03;100.00;98867.53;5173944;27;20050;-62
2022/08/26 08:08:18;;;;;;;13.77;7.93;;;;;;;33.07;100.00;98894.88;5173564;27;20061;-59
2022/08/26 08:10:46;;;;;;;12.25;8.00;;;;;;;32.47;100.00;98861.38;5173770;27;20053;-60
2022/08/26 08:13:12;;;;;;;21.10;8.85;;;;;;;32.95;100.00;98843.03;5173272;27;20042;-59
2022/08/26 08:15:39;;;;;;;17.27;8.90;;;;;;;33.84;100.00;98861.41;5173589;27;20088;-54
2022/08/26 08:18:06;;;;;;;15.88;8.60;;;;;;;33.33;100.00;98863.16;5173318;27;20186;-56
2022/08/26 08:20:33;;;;;;;13.35;8.52;;;;;;;33.79;100.00;98890.69;5173221;27;20050;-56
2022/08/26 08:23:01;;;;;;;16.00;8.45;;;;;;;34.37;100.00;98904.53;5173079;27;20491;-55
2022/08/26 08:25:28;;;;;;;18.98;8.43;;;;;;;34.71;100.00;98915.50;5173430;27;20390;-57
2022/08/26 08:27:54;;;;;;;21.50;8.65;;;;;;;35.12;100.00;98920.94;5173100;27;20102;-55
2022/08/26 08:30:22;;;;;;;11.10;7.35;;;;;;;35.09;100.00;98947.66;5173314;27;20671;-57
2022/08/26 08:32:48;;;;;;;43.35;8.32;;;;;;;33.97;100.00;98938.31;5173527;27;20120;-55
2022/08/26 08:35:16;;;;;;;16.45;8.60;;;;;;;34.69;100.00;98937.28;5172985;27;20058;-53
2022/08/26 08:37:43;;;;;;;12.30;7.57;;;;;;;33.94;100.00;98935.75;5173452;27;20938;-53
2022/08/26 08:40:11;;;;;;;15.98;7.82;;;;;;;33.87;100.00;98916.44;5172960;27;20110;-53
2022/08/26 08:42:45;;;;;;;13.15;7.53;;;;;;;34.36;100.00;98916.47;5173130;27;20505;-53
2022/08/26 08:45:17;;;;;;;12.73;8.15;;;;;;;33.44;100.00;98917.06;5172769;27;20085;-52
2022/08/26 08:47:49;;;;;;;20.73;7.60;;;;;;;34.65;100.00;98924.13;5172799;27;20061;-50
2022/08/26 08:50:22;;;;;;;9.70;7.00;;;;;;;34.01;100.00;98932.34;5172993;27;20042;-57
2022/08/26 08:52:54;;;;;;;12.45;7.10;;;;;;;34.18;100.00;98938.63;5172722;27;20187;-57
2022/08/26 08:55:23;;;;;;;12.85;7.50;;;;;;;33.96;100.00;98921.78;5172764;27;20098;-56
2022/08/26 08:57:59;;;;;;;8.88;7.57;;;;;;;35.01;100.00;98943.06;5172649;27;20100;-57
2022/08/26 09:00:32;;;;;;;12.82;7.10;;;;;;;34.91;100.00;98934.13;5172892;27;20137;-56
2022/08/26 09:03:05;;;;;;;14.32;7.78;;;;;;;35.04;100.00;98933.47;5172217;27;20053;-56
2022/08/26 09:05:40;;;;;;;17.67;7.28;;;;;;;34.74;100.00;98945.75;5172016;27;20137;-54
2022/08/26 09:08:10;;;;;;;14.73;7.20;;;;;;;33.32;100.00;98921.28;5172733;27;20046;-55
2022/08/26 09:10:39;;;;;;;13.20;7.45;;;;;;;34.19;100.00;98928.81;5172776;27;20153;-55
2022/08/26 09:13:09;;;;;;;14.95;7.38;;;;;;;35.57;100.00;98943.03;5172509;27;20133;-56
2022/08/26 09:15:53;;;;;;;9.43;6.57;;;;;;;35.08;98.42;98957.47;5172413;27;20194;-56
2022/08/26 09:18:35;;;;;;;11.98;6.40;;;;;;;34.77;89.34;98987.41;5172505;27;20095;-60
2022/08/26 09:21:05;;;;;;;9.75;5.75;;;;;;;34.43;89.93;98989.84;5172287;27;20497;-54
2022/08/26 09:23:34;;;;;;;9.90;6.10;;;;;;;34.72;90.08;98982.53;5172219;27;20137;-56
2022/08/26 09:26:03;;;;;;;11.50;6.03;;;;;;;33.84;92.69;98968.69;5172272;27;20455;-56
2022/08/26 09:28:30;;;;;;;9.65;6.05;;;;;;;35.24;87.44;98981.34;5172356;27;20371;-54
2022/08/26 09:31:09;;;;;;;8.13;5.75;;;;;;;35.20;84.63;98992.28;5172588;27;20095;-56
2022/08/26 09:33:36;;;;;;;9.65;6.13;;;;;;;36.07;82.48;98994.09;5172062;27;20137;-61
2022/08/26 09:36:21;;;;;;;13.38;6.55;;;;;;;34.67;83.56;98998.38;5172140;27;20153;-61
2022/08/26 09:38:49;;;;;;;8.55;5.45;;;;;;;35.36;82.42;98996.97;5172037;27;20057;-54
2022/08/26 09:41:30;;;;;;;16.17;6.30;;;;;;;36.05;82.70;98988.91;5171931;27;20050;-57
2022/08/26 09:44:15;;;;;;;12.50;5.80;;;;;;;35.29;79.42;99005.34;5171815;27;20057;-57
2022/08/26 09:46:46;;;;;;;9.10;4.95;;;;;;;35.90;74.22;99011.47;5171864;27;20514;-60
2022/08/26 09:49:29;;;;;;;6.85;5.00;;;;;;;35.65;74.46;99013.66;5171819;27;20490;-59
2022/08/26 09:52:15;;;;;;;7.95;5.30;;;;;;;34.79;78.37;98999.03;5171859;27;20491;-57
2022/08/26 09:54:43;;;;;;;10.00;5.75;;;;;;;35.53;80.64;98988.19;5172332;27;20055;-57
2022/08/26 09:57:16;;;;;;;11.25;5.80;;;;;;;35.16;83.05;98991.84;5172504;27;20550;-59
2022/08/26 09:59:42;;;;;;;;;;;;;;;35.79;79.74;98987.53;5172330;27;20133;-59
2022/08/26 10:02:34;;;;;;;9.95;6.13;;;;;;;35.79;76.29;99006.72;5172109;27;20017;-53
2022/08/26 10:05:05;;;;;;;14.57;5.60;;;;;;;35.50;77.04;98994.19;5171613;27;20457;-56
2022/08/26 10:07:39;;;;;;;10.32;5.38;;;;;;;35.20;76.24;98995.13;5171869;27;20050;-56
2022/08/26 10:10:10;;;;;;;13.27;5.45;;;;;;;34.97;75.02;98994.66;5171529;27;20073;-59
2022/08/26 10:12:42;;;;;;;8.00;5.10;;;;;;;35.65;75.61;99000.19;5171398;27;20576;-57
2022/08/26 10:15:11;;;;;;;5.97;5.00;;;;;;;34.67;74.21;99011.84;5172642;27;20050;-60
2022/08/26 10:17:43;;;;;;;6.78;5.20;;;;;;;33.92;77.71;98989.53;5174895;27;20126;-61
2022/08/26 10:20:14;;;;;;;9.85;5.80;;;;;;;34.01;77.69;98986.38;5175331;27;20262;-61
2022/08/26 10:22:47;;;;;;;7.07;4.68;;;;;;;35.15;74.24;98987.44;5175256;27;20545;-62
2022/08/26 10:25:17;;;;;;;10.48;5.22;;;;;;;35.78;74.21;98988.06;5175337;27;20489;-61
2022/08/26 10:27:47;;;;;;;8.68;5.07;;;;;;;34.79;69.82;99012.47;5174806;27;20463;-61
2022/08/26 10:30:18;;;;;;;10.02;4.57;;;;;;;34.59;71.32;99002.34;5175359;27;20050;-61
2022/08/26 10:32:49;;;;;;;7.65;4.60;;;;;;;34.58;70.04;98998.75;5174769;27;20077;-61
2022/08/26 10:35:18;;;;;;;12.43;5.30;;;;;;;33.97;72.37;98991.56;5175076;27;20066;-59
2022/08/26 10:37:48;;;;;;;7.10;5.05;;;;;;;33.86;74.83;98986.00;5175092;27;20046;-59
2022/08/26 10:40:21;;;;;;;8.27;4.85;;;;;;;34.26;72.18;98989.25;5174854;27;20088;-54
2022/08/26 10:42:54;;;;;;;5.32;4.63;;;;;;;33.68;74.34;98988.19;5175059;27;20101;-57
2022/08/26 10:45:25;;;;;;;13.88;5.30;;;;;;;33.08;74.15;98990.13;5174784;27;20141;-56
2022/08/26 10:47:56;;;;;;;5.90;4.82;;;;;;;33.70;73.35;98979.91;5174776;27;20078;-56
2022/08/26 10:50:27;;;;;;;9.25;5.07;;;;;;;33.87;73.73;98984.69;5174703;27;20428;-54
2022/08/26 10:53:01;;;;;;;10.93;5.07;;;;;;;32.87;77.71;98966.97;5175058;27;20077;-53
2022/08/26 10:55:35;;;;;;;13.70;5.28;;;;;;;32.74;81.61;98961.88;5174691;27;20533;-55
2022/08/26 10:58:10;;;;;;;9.77;5.20;;;;;;;31.73;86.46;98939.38;5174470;27;20129;-57
2022/08/26 11:03:38;;;;;;;10.27;6.15;;;;;;;32.43;85.84;98935.41;5174547;27;20214;-54
2022/08/26 11:06:24;;;;;;;9.93;5.85;;;;;;;33.34;80.99;98935.72;5174585;27;20057;-52
2022/08/26 11:08:52;;;;;;;7.90;5.40;;;;;;;33.83;79.99;98935.88;5174431;27;20061;-54
2022/08/26 11:11:44;;;;;;;29.08;6.28;;;;;;;33.11;80.38;98937.94;5174414;27;20058;-55
2022/08/26 11:14:11;;;;;;;6.95;5.18;;;;;;;32.87;80.06;98930.06;5174112;27;20050;-55
2022/08/26 11:16:40;;;;;;;7.60;5.82;;;;;;;32.37;80.58;98928.97;5174463;27;20428;-57
2022/08/26 11:19:08;;;;;;;9.60;5.65;;;;;;;32.86;80.68;98931.38;5174338;27;20128;-53
2022/08/26 11:21:51;;;;;;;6.68;5.07;;;;;;;33.04;80.06;98927.91;5174163;27;20133;-55
2022/08/26 11:24:45;;;;;;;7.20;5.50;;;;;;;32.41;75.52;98937.97;5174245;27;20129;-53
2022/08/26 11:27:56;;;;;;;11.10;5.10;;;;;;;32.55;74.02;98938.97;5113726;27;20050;-55
2022/08/26 11:30:49;;;;;;;9.38;5.68;;;;;;;33.60;72.65;98938.91;5174159;27;20094;-56
2022/08/26 11:33:55;;;;;;;11.30;5.63;;;;;;;33.56;73.82;98934.81;5174151;27;20105;-54
2022/08/26 11:36:36;;;;;;;7.32;5.63;;;;;;;32.74;76.87;98928.56;5173112;27;20050;-55
2022/08/26 11:39:03;;;;;;;8.23;5.25;;;;;;;33.01;74.99;98921.22;5173990;27;20082;-52